sensor_id;sensor_type;location;lat;lon;timestamp;P1;P2;P0
30342;PMS5003;17145;49.902;8.680;2022-12-29T00:00:46;6;6;
30342;PMS5003;17145;49.902;8.680;2022-12-29T00:03:13;8;8;
30342;PMS5003;17145;49.902;8.680;2022-12-29T00:05:41;8;6;
30342;PMS5003;17145;49.902;8.680;2022-12-29T00:08:08;11;11;
30342;PMS5003;17145;49.902;8.680;2022-12-29T00:10:36;13;10;
30342;PMS5003;17145;49.902;8.680;2022-12-29T00:13:03;10;10;
30342;PMS5003;17145;49.902;8.680;2022-12-29T00:15:30;8;8;
30342;PMS5003;17145;49.902;8.680;2022-12-29T00:17:58;8;8;
30342;PMS5003;17145;49.902;8.680;2022-12-29T00:20:25;6;6;
30342;PMS5003;17145;49.902;8.680;2022-12-29T00:22:52;11;10;
30342;PMS5003;17145;49.902;8.680;2022-12-29T00:25:20;11;11;
30342;PMS5003;17145;49.902;8.680;2022-12-29T00:27:47;6;6;
30342;PMS5003;17145;49.902;8.680;2022-12-29T00:30:15;6;6;
30342;PMS5003;17145;49.902;8.680;2022-12-29T00:32:44;6;6;
30342;PMS5003;17145;49.902;8.680;2022-12-29T00:35:12;6;5;
30342;PMS5003;17145;49.902;8.680;2022-12-29T00:37:42;7;7;
30342;PMS5003;17145;49.902;8.680;2022-12-29T00:40:12;6;6;
30342;PMS5003;17145;49.902;8.680;2022-12-29T00:42:40;5;5;
30342;PMS5003;17145;49.902;8.680;2022-12-29T00:45:07;6;6;
30342;PMS5003;17145;49.902;8.680;2022-12-29T00:47:35;6;6;
30342;PMS5003;17145;49.902;8.680;2022-12-29T00:50:02;9;9;
30342;PMS5003;17145;49.902;8.680;2022-12-29T00:52:30;8;8;
30342;PMS5003;17145;49.902;8.680;2022-12-29T00:54:57;10;10;
30342;PMS5003;17145;49.902;8.680;2022-12-29T00:57:25;6;6;
30342;PMS5003;17145;49.902;8.680;2022-12-29T00:59:52;5;5;
30342;PMS5003;17145;49.902;8.680;2022-12-29T01:02:19;5;5;
30342;PMS5003;17145;49.902;8.680;2022-12-29T01:04:47;5;5;
30342;PMS5003;17145;49.902;8.680;2022-12-29T01:07:14;5;5;
30342;PMS5003;17145;49.902;8.680;2022-12-29T01:09:42;6;5;
30342;PMS5003;17145;49.902;8.680;2022-12-29T01:12:09;5;5;
30342;PMS5003;17145;49.902;8.680;2022-12-29T01:14:37;9;6;
30342;PMS5003;17145;49.902;8.680;2022-12-29T01:17:05;4;4;
30342;PMS5003;17145;49.902;8.680;2022-12-29T01:19:33;3;3;
30342;PMS5003;17145;49.902;8.680;2022-12-29T01:22:01;4;4;
30342;PMS5003;17145;49.902;8.680;2022-12-29T01:24:28;4;4;
30342;PMS5003;17145;49.902;8.680;2022-12-29T01:26:55;4;4;
30342;PMS5003;17145;49.902;8.680;2022-12-29T01:29:23;6;6;
30342;PMS5003;17145;49.902;8.680;2022-12-29T01:31:50;4;4;
30342;PMS5003;17145;49.902;8.680;2022-12-29T01:34:18;4;4;
30342;PMS5003;17145;49.902;8.680;2022-12-29T01:36:45;4;4;
30342;PMS5003;17145;49.902;8.680;2022-12-29T01:39:13;5;5;
30342;PMS5003;17145;49.902;8.680;2022-12-29T01:41:40;4;4;
30342;PMS5003;17145;49.902;8.680;2022-12-29T01:46:54;5;5;
30342;PMS5003;17145;49.902;8.680;2022-12-29T01:49:23;5;4;
30342;PMS5003;17145;49.902;8.680;2022-12-29T01:51:54;5;4;
30342;PMS5003;17145;49.902;8.680;2022-12-29T01:54:26;5;4;
30342;PMS5003;17145;49.902;8.680;2022-12-29T01:56:59;3;3;
30342;PMS5003;17145;49.902;8.680;2022-12-29T01:59:29;3;3;
30342;PMS5003;17145;49.902;8.680;2022-12-29T02:01:59;5;5;
30342;PMS5003;17145;49.902;8.680;2022-12-29T02:04:29;3;3;
30342;PMS5003;17145;49.902;8.680;2022-12-29T02:07:00;4;4;
30342;PMS5003;17145;49.902;8.680;2022-12-29T02:09:31;3;3;
30342;PMS5003;17145;49.902;8.680;2022-12-29T02:11:59;3;3;
30342;PMS5003;17145;49.902;8.680;2022-12-29T02:14:27;3;3;
30342;PMS5003;17145;49.902;8.680;2022-12-29T02:16:59;5;5;
30342;PMS5003;17145;49.902;8.680;2022-12-29T02:19:47;4;3;
30342;PMS5003;17145;49.902;8.680;2022-12-29T02:22:29;4;4;
30342;PMS5003;17145;49.902;8.680;2022-12-29T02:25:12;5;5;
30342;PMS5003;17145;49.902;8.680;2022-12-29T02:27:49;6;5;
30342;PMS5003;17145;49.902;8.680;2022-12-29T02:33:06;4;4;
30342;PMS5003;17145;49.902;8.680;2022-12-29T02:35:44;3;3;
30342;PMS5003;17145;49.902;8.680;2022-12-29T02:38:24;9;7;
30342;PMS5003;17145;49.902;8.680;2022-12-29T02:41:00;4;4;
30342;PMS5003;17145;49.902;8.680;2022-12-29T02:43:36;4;4;
30342;PMS5003;17145;49.902;8.680;2022-12-29T02:46:10;3;3;
30342;PMS5003;17145;49.902;8.680;2022-12-29T02:48:46;5;4;
30342;PMS5003;17145;49.902;8.680;2022-12-29T02:51:20;4;4;
30342;PMS5003;17145;49.902;8.680;2022-12-29T02:53:53;5;4;
30342;PMS5003;17145;49.902;8.680;2022-12-29T02:56:22;7;6;
30342;PMS5003;17145;49.902;8.680;2022-12-29T02:58:49;6;6;
30342;PMS5003;17145;49.902;8.680;2022-12-29T03:01:21;7;4;
30342;PMS5003;17145;49.902;8.680;2022-12-29T03:04:00;4;4;
30342;PMS5003;17145;49.902;8.680;2022-12-29T03:06:38;5;5;
30342;PMS5003;17145;49.902;8.680;2022-12-29T03:09:17;3;3;
30342;PMS5003;17145;49.902;8.680;2022-12-29T03:11:54;4;4;
30342;PMS5003;17145;49.902;8.680;2022-12-29T03:14:29;4;4;
30342;PMS5003;17145;49.902;8.680;2022-12-29T03:17:05;4;4;
30342;PMS5003;17145;49.902;8.680;2022-12-29T03:19:41;3;3;
30342;PMS5003;17145;49.902;8.680;2022-12-29T03:22:17;4;4;
30342;PMS5003;17145;49.902;8.680;2022-12-29T03:24:48;4;4;
30342;PMS5003;17145;49.902;8.680;2022-12-29T03:27:19;5;4;
30342;PMS5003;17145;49.902;8.680;2022-12-29T03:29:52;5;4;
30342;PMS5003;17145;49.902;8.680;2022-12-29T03:32:24;3;3;
30342;PMS5003;17145;49.902;8.680;2022-12-29T03:34:55;4;4;
30342;PMS5003;17145;49.902;8.680;2022-12-29T03:37:26;5;5;
30342;PMS5003;17145;49.902;8.680;2022-12-29T03:39:57;4;4;
30342;PMS5003;17145;49.902;8.680;2022-12-29T03:42:25;5;4;
30342;PMS5003;17145;49.902;8.680;2022-12-29T03:44:56;4;4;
30342;PMS5003;17145;49.902;8.680;2022-12-29T03:47:23;3;3;
30342;PMS5003;17145;49.902;8.680;2022-12-29T03:49:51;4;4;
30342;PMS5003;17145;49.902;8.680;2022-12-29T03:52:19;5;4;
30342;PMS5003;17145;49.902;8.680;2022-12-29T03:54:46;3;3;
30342;PMS5003;17145;49.902;8.680;2022-12-29T03:57:14;3;3;
30342;PMS5003;17145;49.902;8.680;2022-12-29T03:59:41;3;3;
30342;PMS5003;17145;49.902;8.680;2022-12-29T04:02:08;3;3;
30342;PMS5003;17145;49.902;8.680;2022-12-29T04:04:36;4;4;
30342;PMS5003;17145;49.902;8.680;2022-12-29T04:07:03;3;3;
30342;PMS5003;17145;49.902;8.680;2022-12-29T04:09:30;4;4;
30342;PMS5003;17145;49.902;8.680;2022-12-29T04:11:58;4;3;
30342;PMS5003;17145;49.902;8.680;2022-12-29T04:14:25;4;4;
30342;PMS5003;17145;49.902;8.680;2022-12-29T04:16:53;6;5;
30342;PMS5003;17145;49.902;8.680;2022-12-29T04:19:20;6;6;
30342;PMS5003;17145;49.902;8.680;2022-12-29T04:21:48;10;10;
30342;PMS5003;17145;49.902;8.680;2022-12-29T04:24:15;18;17;
30342;PMS5003;17145;49.902;8.680;2022-12-29T04:26:42;35;35;
30342;PMS5003;17145;49.902;8.680;2022-12-29T04:29:10;65;65;
30342;PMS5003;17145;49.902;8.680;2022-12-29T04:31:37;48;48;
30342;PMS5003;17145;49.902;8.680;2022-12-29T04:34:05;58;58;
30342;PMS5003;17145;49.902;8.680;2022-12-29T04:36:32;68;67;
30342;PMS5003;17145;49.902;8.680;2022-12-29T04:39:00;34;33;
30342;PMS5003;17145;49.902;8.680;2022-12-29T04:41:27;53;53;
30342;PMS5003;17145;49.902;8.680;2022-12-29T04:43:55;51;51;
30342;PMS5003;17145;49.902;8.680;2022-12-29T04:46:22;40;40;
30342;PMS5003;17145;49.902;8.680;2022-12-29T04:48:50;18;18;
30342;PMS5003;17145;49.902;8.680;2022-12-29T04:51:17;1;1;
30342;PMS5003;17145;49.902;8.680;2022-12-29T04:53:45;1;1;
30342;PMS5003;17145;49.902;8.680;2022-12-29T04:56:12;0;0;
30342;PMS5003;17145;49.902;8.680;2022-12-29T04:58:39;1;1;
30342;PMS5003;17145;49.902;8.680;2022-12-29T05:01:07;0;0;
30342;PMS5003;17145;49.902;8.680;2022-12-29T05:03:34;1;1;
30342;PMS5003;17145;49.902;8.680;2022-12-29T05:06:02;2;1;
30342;PMS5003;17145;49.902;8.680;2022-12-29T05:08:29;1;1;
30342;PMS5003;17145;49.902;8.680;2022-12-29T05:10:57;1;1;
30342;PMS5003;17145;49.902;8.680;2022-12-29T05:13:24;2;2;
30342;PMS5003;17145;49.902;8.680;2022-12-29T05:15:52;2;2;
30342;PMS5003;17145;49.902;8.680;2022-12-29T05:18:20;1;1;
30342;PMS5003;17145;49.902;8.680;2022-12-29T05:20:47;1;0;
30342;PMS5003;17145;49.902;8.680;2022-12-29T05:23:15;1;0;
30342;PMS5003;17145;49.902;8.680;2022-12-29T05:25:43;1;1;
30342;PMS5003;17145;49.902;8.680;2022-12-29T05:28:10;0;0;
30342;PMS5003;17145;49.902;8.680;2022-12-29T05:30:38;0;0;
30342;PMS5003;17145;49.902;8.680;2022-12-29T05:33:05;1;1;
30342;PMS5003;17145;49.902;8.680;2022-12-29T05:35:33;1;1;
30342;PMS5003;17145;49.902;8.680;2022-12-29T05:38:00;1;1;
30342;PMS5003;17145;49.902;8.680;2022-12-29T05:40:28;0;0;
30342;PMS5003;17145;49.902;8.680;2022-12-29T05:42:55;1;1;
30342;PMS5003;17145;49.902;8.680;2022-12-29T05:45:22;1;1;
30342;PMS5003;17145;49.902;8.680;2022-12-29T05:47:50;1;1;
30342;PMS5003;17145;49.902;8.680;2022-12-29T05:50:17;1;1;
30342;PMS5003;17145;49.902;8.680;2022-12-29T05:52:44;0;0;
30342;PMS5003;17145;49.902;8.680;2022-12-29T05:55:12;2;2;
30342;PMS5003;17145;49.902;8.680;2022-12-29T05:57:40;2;2;
30342;PMS5003;17145;49.902;8.680;2022-12-29T06:00:07;3;1;
30342;PMS5003;17145;49.902;8.680;2022-12-29T06:02:36;2;2;
30342;PMS5003;17145;49.902;8.680;2022-12-29T06:05:03;3;2;
30342;PMS5003;17145;49.902;8.680;2022-12-29T06:07:31;2;1;
30342;PMS5003;17145;49.902;8.680;2022-12-29T06:09:58;3;2;
30342;PMS5003;17145;49.902;8.680;2022-12-29T06:12:25;1;1;
30342;PMS5003;17145;49.902;8.680;2022-12-29T06:14:53;1;1;
30342;PMS5003;17145;49.902;8.680;2022-12-29T06:17:20;2;2;
30342;PMS5003;17145;49.902;8.680;2022-12-29T06:19:48;2;1;
30342;PMS5003;17145;49.902;8.680;2022-12-29T06:22:15;1;1;
30342;PMS5003;17145;49.902;8.680;2022-12-29T06:24:42;2;1;
30342;PMS5003;17145;49.902;8.680;2022-12-29T06:27:10;1;1;
30342;PMS5003;17145;49.902;8.680;2022-12-29T06:29:37;2;2;
30342;PMS5003;17145;49.902;8.680;2022-12-29T06:32:05;1;1;
30342;PMS5003;17145;49.902;8.680;2022-12-29T06:34:32;0;0;
30342;PMS5003;17145;49.902;8.680;2022-12-29T06:37:00;1;1;
30342;PMS5003;17145;49.902;8.680;2022-12-29T06:39:27;1;1;
30342;PMS5003;17145;49.902;8.680;2022-12-29T06:41:55;1;1;
30342;PMS5003;17145;49.902;8.680;2022-12-29T06:44:22;1;1;
30342;PMS5003;17145;49.902;8.680;2022-12-29T06:46:50;2;2;
30342;PMS5003;17145;49.902;8.680;2022-12-29T06:49:17;2;2;
30342;PMS5003;17145;49.902;8.680;2022-12-29T06:51:45;1;1;
30342;PMS5003;17145;49.902;8.680;2022-12-29T06:54:12;1;1;
30342;PMS5003;17145;49.902;8.680;2022-12-29T06:56:40;2;2;
30342;PMS5003;17145;49.902;8.680;2022-12-29T06:59:08;2;2;
30342;PMS5003;17145;49.902;8.680;2022-12-29T07:01:36;1;1;
30342;PMS5003;17145;49.902;8.680;2022-12-29T07:04:04;2;1;
30342;PMS5003;17145;49.902;8.680;2022-12-29T07:06:31;2;1;
30342;PMS5003;17145;49.902;8.680;2022-12-29T07:08:59;1;1;
30342;PMS5003;17145;49.902;8.680;2022-12-29T07:11:26;2;2;
30342;PMS5003;17145;49.902;8.680;2022-12-29T07:13:54;1;1;
30342;PMS5003;17145;49.902;8.680;2022-12-29T07:16:21;1;1;
30342;PMS5003;17145;49.902;8.680;2022-12-29T07:18:48;2;2;
30342;PMS5003;17145;49.902;8.680;2022-12-29T07:21:16;1;1;
30342;PMS5003;17145;49.902;8.680;2022-12-29T07:23:43;2;1;
30342;PMS5003;17145;49.902;8.680;2022-12-29T07:26:12;2;2;
30342;PMS5003;17145;49.902;8.680;2022-12-29T07:28:40;1;1;
30342;PMS5003;17145;49.902;8.680;2022-12-29T07:31:10;1;1;
30342;PMS5003;17145;49.902;8.680;2022-12-29T07:33:41;1;1;
30342;PMS5003;17145;49.902;8.680;2022-12-29T07:36:09;2;1;
30342;PMS5003;17145;49.902;8.680;2022-12-29T07:38:37;2;1;
30342;PMS5003;17145;49.902;8.680;2022-12-29T07:41:04;1;1;
30342;PMS5003;17145;49.902;8.680;2022-12-29T07:43:32;1;1;
30342;PMS5003;17145;49.902;8.680;2022-12-29T07:45:59;6;4;
30342;PMS5003;17145;49.902;8.680;2022-12-29T07:48:27;4;4;
30342;PMS5003;17145;49.902;8.680;2022-12-29T07:50:54;3;3;
30342;PMS5003;17145;49.902;8.680;2022-12-29T07:53:22;2;2;
30342;PMS5003;17145;49.902;8.680;2022-12-29T07:55:50;1;1;
30342;PMS5003;17145;49.902;8.680;2022-12-29T07:58:17;1;1;
30342;PMS5003;17145;49.902;8.680;2022-12-29T08:00:44;1;1;
30342;PMS5003;17145;49.902;8.680;2022-12-29T08:03:11;1;1;
30342;PMS5003;17145;49.902;8.680;2022-12-29T08:05:39;1;1;
30342;PMS5003;17145;49.902;8.680;2022-12-29T08:08:06;1;1;
30342;PMS5003;17145;49.902;8.680;2022-12-29T08:10:34;2;2;
30342;PMS5003;17145;49.902;8.680;2022-12-29T08:13:01;3;3;
30342;PMS5003;17145;49.902;8.680;2022-12-29T08:15:28;4;2;
30342;PMS5003;17145;49.902;8.680;2022-12-29T08:17:56;3;3;
30342;PMS5003;17145;49.902;8.680;2022-12-29T08:20:23;2;2;
30342;PMS5003;17145;49.902;8.680;2022-12-29T08:22:51;2;2;
30342;PMS5003;17145;49.902;8.680;2022-12-29T08:25:18;2;1;
30342;PMS5003;17145;49.902;8.680;2022-12-29T08:27:46;1;1;
30342;PMS5003;17145;49.902;8.680;2022-12-29T08:30:13;1;1;
30342;PMS5003;17145;49.902;8.680;2022-12-29T08:32:41;2;1;
30342;PMS5003;17145;49.902;8.680;2022-12-29T08:35:08;1;1;
30342;PMS5003;17145;49.902;8.680;2022-12-29T08:37:36;1;1;
30342;PMS5003;17145;49.902;8.680;2022-12-29T08:40:04;1;0;
30342;PMS5003;17145;49.902;8.680;2022-12-29T08:42:32;3;3;
30342;PMS5003;17145;49.902;8.680;2022-12-29T08:45:00;1;1;
30342;PMS5003;17145;49.902;8.680;2022-12-29T08:47:28;2;1;
30342;PMS5003;17145;49.902;8.680;2022-12-29T08:49:55;1;1;
30342;PMS5003;17145;49.902;8.680;2022-12-29T08:52:23;1;1;
30342;PMS5003;17145;49.902;8.680;2022-12-29T08:54:50;1;1;
30342;PMS5003;17145;49.902;8.680;2022-12-29T08:57:18;1;1;
30342;PMS5003;17145;49.902;8.680;2022-12-29T08:59:46;1;1;
30342;PMS5003;17145;49.902;8.680;2022-12-29T09:02:13;2;2;
30342;PMS5003;17145;49.902;8.680;2022-12-29T09:04:40;2;1;
30342;PMS5003;17145;49.902;8.680;2022-12-29T09:07:08;2;2;
30342;PMS5003;17145;49.902;8.680;2022-12-29T09:09:35;2;2;
30342;PMS5003;17145;49.902;8.680;2022-12-29T09:12:02;2;2;
30342;PMS5003;17145;49.902;8.680;2022-12-29T09:14:30;1;1;
30342;PMS5003;17145;49.902;8.680;2022-12-29T09:16:57;1;1;
30342;PMS5003;17145;49.902;8.680;2022-12-29T09:19:25;3;3;
30342;PMS5003;17145;49.902;8.680;2022-12-29T09:21:52;2;2;
30342;PMS5003;17145;49.902;8.680;2022-12-29T09:24:20;2;2;
30342;PMS5003;17145;49.902;8.680;2022-12-29T09:26:47;1;1;
30342;PMS5003;17145;49.902;8.680;2022-12-29T09:29:14;1;1;
30342;PMS5003;17145;49.902;8.680;2022-12-29T09:31:42;1;1;
30342;PMS5003;17145;49.902;8.680;2022-12-29T09:34:09;1;1;
30342;PMS5003;17145;49.902;8.680;2022-12-29T09:36:37;2;2;
30342;PMS5003;17145;49.902;8.680;2022-12-29T09:39:04;3;2;
30342;PMS5003;17145;49.902;8.680;2022-12-29T09:41:32;3;2;
30342;PMS5003;17145;49.902;8.680;2022-12-29T09:44:07;2;2;
30342;PMS5003;17145;49.902;8.680;2022-12-29T09:46:40;3;2;
30342;PMS5003;17145;49.902;8.680;2022-12-29T09:49:15;1;1;
30342;PMS5003;17145;49.902;8.680;2022-12-29T09:51:49;1;1;
30342;PMS5003;17145;49.902;8.680;2022-12-29T09:54:23;1;1;
30342;PMS5003;17145;49.902;8.680;2022-12-29T09:56:57;1;1;
30342;PMS5003;17145;49.902;8.680;2022-12-29T09:59:26;1;1;
30342;PMS5003;17145;49.902;8.680;2022-12-29T10:02:04;1;1;
30342;PMS5003;17145;49.902;8.680;2022-12-29T10:04:40;1;1;
30342;PMS5003;17145;49.902;8.680;2022-12-29T10:07:10;2;1;
30342;PMS5003;17145;49.902;8.680;2022-12-29T10:09:47;1;0;
30342;PMS5003;17145;49.902;8.680;2022-12-29T10:12:25;2;1;
30342;PMS5003;17145;49.902;8.680;2022-12-29T10:15:03;1;1;
30342;PMS5003;17145;49.902;8.680;2022-12-29T10:17:39;2;2;
30342;PMS5003;17145;49.902;8.680;2022-12-29T10:22:56;2;2;
30342;PMS5003;17145;49.902;8.680;2022-12-29T10:25:42;1;1;
30342;PMS5003;17145;49.902;8.680;2022-12-29T10:28:15;1;1;
30342;PMS5003;17145;49.902;8.680;2022-12-29T10:30:47;3;2;
30342;PMS5003;17145;49.902;8.680;2022-12-29T10:33:17;2;2;
30342;PMS5003;17145;49.902;8.680;2022-12-29T10:35:48;1;1;
30342;PMS5003;17145;49.902;8.680;2022-12-29T10:38:20;2;1;
30342;PMS5003;17145;49.902;8.680;2022-12-29T10:40:54;3;2;
30342;PMS5003;17145;49.902;8.680;2022-12-29T10:43:28;2;2;
30342;PMS5003;17145;49.902;8.680;2022-12-29T10:45:57;2;2;
30342;PMS5003;17145;49.902;8.680;2022-12-29T10:48:28;2;2;
30342;PMS5003;17145;49.902;8.680;2022-12-29T10:50:59;1;1;
30342;PMS5003;17145;49.902;8.680;2022-12-29T10:53:31;2;2;
30342;PMS5003;17145;49.902;8.680;2022-12-29T10:56:05;3;3;
30342;PMS5003;17145;49.902;8.680;2022-12-29T10:58:42;2;2;
30342;PMS5003;17145;49.902;8.680;2022-12-29T11:01:13;2;2;
30342;PMS5003;17145;49.902;8.680;2022-12-29T11:03:43;5;5;
30342;PMS5003;17145;49.902;8.680;2022-12-29T11:06:18;1;1;
30342;PMS5003;17145;49.902;8.680;2022-12-29T11:08:53;1;1;
30342;PMS5003;17145;49.902;8.680;2022-12-29T11:11:25;2;1;
30342;PMS5003;17145;49.902;8.680;2022-12-29T11:13:56;2;2;
30342;PMS5003;17145;49.902;8.680;2022-12-29T11:16:27;2;2;
30342;PMS5003;17145;49.902;8.680;2022-12-29T11:18:56;3;3;
30342;PMS5003;17145;49.902;8.680;2022-12-29T11:21:26;3;2;
30342;PMS5003;17145;49.902;8.680;2022-12-29T11:23:58;2;2;
30342;PMS5003;17145;49.902;8.680;2022-12-29T11:26:27;2;1;
30342;PMS5003;17145;49.902;8.680;2022-12-29T11:29:05;2;2;
30342;PMS5003;17145;49.902;8.680;2022-12-29T11:31:41;2;2;
30342;PMS5003;17145;49.902;8.680;2022-12-29T11:36:44;2;2;
30342;PMS5003;17145;49.902;8.680;2022-12-29T11:41:51;5;5;
30342;PMS5003;17145;49.902;8.680;2022-12-29T11:44:20;2;2;
30342;PMS5003;17145;49.902;8.680;2022-12-29T11:46:48;7;6;
30342;PMS5003;17145;49.902;8.680;2022-12-29T11:49:19;3;3;
30342;PMS5003;17145;49.902;8.680;2022-12-29T11:51:49;3;3;
30342;PMS5003;17145;49.902;8.680;2022-12-29T11:54:20;5;3;
30342;PMS5003;17145;49.902;8.680;2022-12-29T11:56:50;5;3;
30342;PMS5003;17145;49.902;8.680;2022-12-29T12:04:53;3;3;
30342;PMS5003;17145;49.902;8.680;2022-12-29T12:07:29;2;2;
30342;PMS5003;17145;49.902;8.680;2022-12-29T12:10:05;2;2;
30342;PMS5003;17145;49.902;8.680;2022-12-29T12:12:43;3;3;
30342;PMS5003;17145;49.902;8.680;2022-12-29T12:15:17;3;2;
30342;PMS5003;17145;49.902;8.680;2022-12-29T12:17:49;7;3;
30342;PMS5003;17145;49.902;8.680;2022-12-29T12:20:21;3;3;
30342;PMS5003;17145;49.902;8.680;2022-12-29T12:22:54;7;3;
30342;PMS5003;17145;49.902;8.680;2022-12-29T12:25:31;2;2;
30342;PMS5003;17145;49.902;8.680;2022-12-29T12:28:05;5;3;
30342;PMS5003;17145;49.902;8.680;2022-12-29T12:30:40;3;2;
30342;PMS5003;17145;49.902;8.680;2022-12-29T12:33:15;6;5;
30342;PMS5003;17145;49.902;8.680;2022-12-29T12:35:51;6;6;
30342;PMS5003;17145;49.902;8.680;2022-12-29T12:38:30;5;5;
30342;PMS5003;17145;49.902;8.680;2022-12-29T12:41:07;3;3;
30342;PMS5003;17145;49.902;8.680;2022-12-29T12:43:40;3;3;
30342;PMS5003;17145;49.902;8.680;2022-12-29T12:46:17;6;6;
30342;PMS5003;17145;49.902;8.680;2022-12-29T12:49:03;5;5;
30342;PMS5003;17145;49.902;8.680;2022-12-29T12:51:45;5;5;
30342;PMS5003;17145;49.902;8.680;2022-12-29T12:54:24;6;5;
30342;PMS5003;17145;49.902;8.680;2022-12-29T12:57:06;5;5;
30342;PMS5003;17145;49.902;8.680;2022-12-29T12:59:45;6;5;
30342;PMS5003;17145;49.902;8.680;2022-12-29T13:02:26;10;6;
30342;PMS5003;17145;49.902;8.680;2022-12-29T13:05:10;6;6;
30342;PMS5003;17145;49.902;8.680;2022-12-29T13:07:50;3;3;
30342;PMS5003;17145;49.902;8.680;2022-12-29T13:10:31;5;5;
30342;PMS5003;17145;49.902;8.680;2022-12-29T13:13:17;3;3;
30342;PMS5003;17145;49.902;8.680;2022-12-29T13:16:02;6;6;
30342;PMS5003;17145;49.902;8.680;2022-12-29T13:18:37;5;5;
30342;PMS5003;17145;49.902;8.680;2022-12-29T13:21:15;6;6;
30342;PMS5003;17145;49.902;8.680;2022-12-29T13:23:54;5;5;
30342;PMS5003;17145;49.902;8.680;2022-12-29T13:26:28;5;5;
30342;PMS5003;17145;49.902;8.680;2022-12-29T13:29:04;3;3;
30342;PMS5003;17145;49.902;8.680;2022-12-29T13:31:39;3;3;
30342;PMS5003;17145;49.902;8.680;2022-12-29T13:34:14;5;5;
30342;PMS5003;17145;49.902;8.680;2022-12-29T13:36:52;2;2;
30342;PMS5003;17145;49.902;8.680;2022-12-29T13:39:24;3;2;
30342;PMS5003;17145;49.902;8.680;2022-12-29T13:41:56;3;3;
30342;PMS5003;17145;49.902;8.680;2022-12-29T13:44:24;3;3;
30342;PMS5003;17145;49.902;8.680;2022-12-29T13:46:55;5;3;
30342;PMS5003;17145;49.902;8.680;2022-12-29T13:49:28;3;3;
30342;PMS5003;17145;49.902;8.680;2022-12-29T13:51:57;2;2;
30342;PMS5003;17145;49.902;8.680;2022-12-29T13:54:34;6;3;
30342;PMS5003;17145;49.902;8.680;2022-12-29T13:57:08;3;2;
30342;PMS5003;17145;49.902;8.680;2022-12-29T13:59:43;2;2;
30342;PMS5003;17145;49.902;8.680;2022-12-29T14:02:21;2;2;
30342;PMS5003;17145;49.902;8.680;2022-12-29T14:04:58;2;2;
30342;PMS5003;17145;49.902;8.680;2022-12-29T14:07:27;2;2;
30342;PMS5003;17145;49.902;8.680;2022-12-29T14:09:56;2;2;
30342;PMS5003;17145;49.902;8.680;2022-12-29T14:12:28;3;2;
30342;PMS5003;17145;49.902;8.680;2022-12-29T14:15:05;3;3;
30342;PMS5003;17145;49.902;8.680;2022-12-29T14:17:39;2;2;
30342;PMS5003;17145;49.902;8.680;2022-12-29T14:30:46;3;3;
30342;PMS5003;17145;49.902;8.680;2022-12-29T14:33:16;2;1;
30342;PMS5003;17145;49.902;8.680;2022-12-29T14:35:45;2;2;
30342;PMS5003;17145;49.902;8.680;2022-12-29T14:38:16;2;1;
30342;PMS5003;17145;49.902;8.680;2022-12-29T14:40:49;3;3;
30342;PMS5003;17145;49.902;8.680;2022-12-29T14:43:20;2;2;
30342;PMS5003;17145;49.902;8.680;2022-12-29T14:45:52;3;2;
30342;PMS5003;17145;49.902;8.680;2022-12-29T14:48:30;2;2;
30342;PMS5003;17145;49.902;8.680;2022-12-29T14:53:47;1;1;
30342;PMS5003;17145;49.902;8.680;2022-12-29T14:56:15;2;2;
30342;PMS5003;17145;49.902;8.680;2022-12-29T14:58:47;2;2;
30342;PMS5003;17145;49.902;8.680;2022-12-29T15:01:18;2;2;
30342;PMS5003;17145;49.902;8.680;2022-12-29T15:03:51;2;2;
30342;PMS5003;17145;49.902;8.680;2022-12-29T15:06:24;2;2;
30342;PMS5003;17145;49.902;8.680;2022-12-29T15:08:59;1;1;
30342;PMS5003;17145;49.902;8.680;2022-12-29T15:16:56;2;2;
30342;PMS5003;17145;49.902;8.680;2022-12-29T15:19:24;2;1;
30342;PMS5003;17145;49.902;8.680;2022-12-29T15:21:53;2;2;
30342;PMS5003;17145;49.902;8.680;2022-12-29T15:24:21;1;1;
30342;PMS5003;17145;49.902;8.680;2022-12-29T15:26:50;2;1;
30342;PMS5003;17145;49.902;8.680;2022-12-29T15:29:28;1;1;
30342;PMS5003;17145;49.902;8.680;2022-12-29T15:31:58;3;2;
30342;PMS5003;17145;49.902;8.680;2022-12-29T15:34:29;2;2;
30342;PMS5003;17145;49.902;8.680;2022-12-29T15:36:57;2;1;
30342;PMS5003;17145;49.902;8.680;2022-12-29T15:39:27;2;1;
30342;PMS5003;17145;49.902;8.680;2022-12-29T15:41:56;1;1;
30342;PMS5003;17145;49.902;8.680;2022-12-29T15:44:31;2;2;
30342;PMS5003;17145;49.902;8.680;2022-12-29T15:47:04;2;2;
30342;PMS5003;17145;49.902;8.680;2022-12-29T15:49:33;2;1;
30342;PMS5003;17145;49.902;8.680;2022-12-29T15:52:05;2;2;
30342;PMS5003;17145;49.902;8.680;2022-12-29T15:54:34;1;1;
30342;PMS5003;17145;49.902;8.680;2022-12-29T15:57:04;1;1;
30342;PMS5003;17145;49.902;8.680;2022-12-29T15:59:45;3;2;
30342;PMS5003;17145;49.902;8.680;2022-12-29T16:02:13;1;1;
30342;PMS5003;17145;49.902;8.680;2022-12-29T16:04:41;1;1;
30342;PMS5003;17145;49.902;8.680;2022-12-29T16:09:53;3;3;
30342;PMS5003;17145;49.902;8.680;2022-12-29T16:12:23;1;1;
30342;PMS5003;17145;49.902;8.680;2022-12-29T16:14:53;2;2;
30342;PMS5003;17145;49.902;8.680;2022-12-29T16:17:24;1;1;
30342;PMS5003;17145;49.902;8.680;2022-12-29T16:19:55;2;1;
30342;PMS5003;17145;49.902;8.680;2022-12-29T16:22:26;2;2;
30342;PMS5003;17145;49.902;8.680;2022-12-29T16:24:58;1;1;
30342;PMS5003;17145;49.902;8.680;2022-12-29T16:27:30;3;3;
30342;PMS5003;17145;49.902;8.680;2022-12-29T16:30:03;3;3;
30342;PMS5003;17145;49.902;8.680;2022-12-29T16:32:33;3;3;
30342;PMS5003;17145;49.902;8.680;2022-12-29T16:35:10;3;3;
30342;PMS5003;17145;49.902;8.680;2022-12-29T16:37:39;2;2;
30342;PMS5003;17145;49.902;8.680;2022-12-29T16:42:50;2;1;
30342;PMS5003;17145;49.902;8.680;2022-12-29T16:48:11;2;2;
30342;PMS5003;17145;49.902;8.680;2022-12-29T16:50:45;2;2;
30342;PMS5003;17145;49.902;8.680;2022-12-29T16:53:19;3;2;
30342;PMS5003;17145;49.902;8.680;2022-12-29T16:55:50;3;2;
30342;PMS5003;17145;49.902;8.680;2022-12-29T16:58:20;2;2;
30342;PMS5003;17145;49.902;8.680;2022-12-29T17:00:49;5;3;
30342;PMS5003;17145;49.902;8.680;2022-12-29T17:03:21;2;2;
30342;PMS5003;17145;49.902;8.680;2022-12-29T17:05:49;2;1;
30342;PMS5003;17145;49.902;8.680;2022-12-29T17:08:17;3;3;
30342;PMS5003;17145;49.902;8.680;2022-12-29T17:10:46;2;2;
30342;PMS5003;17145;49.902;8.680;2022-12-29T17:13:13;3;3;
30342;PMS5003;17145;49.902;8.680;2022-12-29T17:15:40;2;2;
30342;PMS5003;17145;49.902;8.680;2022-12-29T17:18:08;5;5;
30342;PMS5003;17145;49.902;8.680;2022-12-29T17:20:36;3;3;
30342;PMS5003;17145;49.902;8.680;2022-12-29T17:23:04;3;3;
30342;PMS5003;17145;49.902;8.680;2022-12-29T17:25:40;5;2;
30342;PMS5003;17145;49.902;8.680;2022-12-29T17:28:10;3;3;
30342;PMS5003;17145;49.902;8.680;2022-12-29T17:30:46;2;2;
30342;PMS5003;17145;49.902;8.680;2022-12-29T17:33:14;5;3;
30342;PMS5003;17145;49.902;8.680;2022-12-29T17:35:43;2;2;
30342;PMS5003;17145;49.902;8.680;2022-12-29T17:38:15;3;2;
30342;PMS5003;17145;49.902;8.680;2022-12-29T17:40:44;5;3;
30342;PMS5003;17145;49.902;8.680;2022-12-29T17:43:13;3;3;
30342;PMS5003;17145;49.902;8.680;2022-12-29T17:45:41;6;3;
30342;PMS5003;17145;49.902;8.680;2022-12-29T17:48:10;5;3;
30342;PMS5003;17145;49.902;8.680;2022-12-29T17:50:40;6;5;
30342;PMS5003;17145;49.902;8.680;2022-12-29T17:53:10;5;5;
30342;PMS5003;17145;49.902;8.680;2022-12-29T17:55:40;3;3;
30342;PMS5003;17145;49.902;8.680;2022-12-29T17:58:13;3;3;